Millinocket, Maine
Current Conditions -  °F | °C
As of 3:53 AM on Friday 28 Nov 2014 (Local Time) from KMLT Reporting Station
Clear Clear  
Wind Chill: 10°   Ceiling: Unl
Heat Index: 10°   Visibility: 8mi
Dew Point:   Wind: 0mph
Humidity: 87%   Direction: NA
Pressure: 30.03"   Gusts: NA
Location:  45.66°N, 68.71°W
Report Text: KMLT 280853Z AUTO 00000KT 8SM CLR M12/M14 A3003 RMK AO2 SLP183 I1000 I3001 T11221139 53004
Loading
Personal Weather Stations






























Interactive Weather Map New forecast layout! Learn more

10-Day Weather Forecast

Advertisements
Track Severe Weather on mobile